createdAt,value
2023-07-09T00:00:20.450Z,5.30
2023-07-09T00:03:12.139Z,9.73
2023-07-09T00:05:40.731Z,9.00
2023-07-09T00:08:27.802Z,9.82
2023-07-09T00:10:57.363Z,9.05
2023-07-09T00:13:27.577Z,5.93
2023-07-09T00:16:02.765Z,8.23
2023-07-09T00:18:31.126Z,8.80
2023-07-09T00:21:00.405Z,9.95
2023-07-09T00:23:29.034Z,8.90
2023-07-09T00:25:59.755Z,7.22
2023-07-09T00:28:28.117Z,8.68
2023-07-09T00:30:56.565Z,6.38
2023-07-09T00:33:29.349Z,9.10
2023-07-09T00:35:57.883Z,6.15
2023-07-09T00:38:26.012Z,6.68
2023-07-09T00:41:07.143Z,11.10
2023-07-09T00:43:37.550Z,5.65
2023-07-09T00:46:37.753Z,7.80
2023-07-09T00:49:10.336Z,10.00
2023-07-09T00:51:43.381Z,9.07
2023-07-09T00:54:38.169Z,9.15
2023-07-09T00:57:19.695Z,8.38
2023-07-09T00:59:52.980Z,6.70
2023-07-09T01:02:25.585Z,8.88
2023-07-09T01:05:02.093Z,7.53
2023-07-09T01:07:35.898Z,11.65
2023-07-09T01:10:04.548Z,9.82
2023-07-09T01:12:36.359Z,7.60
2023-07-09T01:15:06.271Z,9.00
2023-07-09T01:17:35.558Z,10.48
2023-07-09T01:20:04.899Z,8.77
2023-07-09T01:22:33.921Z,7.85
2023-07-09T01:25:08.351Z,8.48
2023-07-09T01:27:44.118Z,9.82
2023-07-09T01:30:24.560Z,12.55
2023-07-09T01:32:58.774Z,10.65
2023-07-09T01:35:28.044Z,9.13
2023-07-09T01:37:57.382Z,12.23
2023-07-09T01:40:31.937Z,5.75
2023-07-09T01:43:07.606Z,9.48
2023-07-09T01:45:38.266Z,12.02
2023-07-09T01:48:09.417Z,8.82
2023-07-09T01:50:40.373Z,7.82
2023-07-09T01:53:10.046Z,9.60
2023-07-09T01:55:40.988Z,5.82
2023-07-09T01:58:12.500Z,9.13
2023-07-09T02:00:42.815Z,10.13
2023-07-09T02:03:12.928Z,9.50
2023-07-09T02:05:42.192Z,9.88
2023-07-09T02:08:10.509Z,8.63
2023-07-09T02:10:38.569Z,9.45
2023-07-09T02:13:07.021Z,12.73
2023-07-09T02:15:35.838Z,10.93
2023-07-09T02:18:04.655Z,9.20
2023-07-09T02:20:52.674Z,10.68
2023-07-09T02:23:21.895Z,8.65
2023-07-09T02:25:49.834Z,4.95
2023-07-09T02:28:18.139Z,7.43
2023-07-09T02:30:46.647Z,6.75
2023-07-09T02:33:15.088Z,6.68
2023-07-09T02:35:43.961Z,8.68
2023-07-09T02:38:12.324Z,10.15
2023-07-09T02:40:40.578Z,7.57
2023-07-09T02:43:08.931Z,7.10
2023-07-09T02:45:37.181Z,8.82
2023-07-09T02:48:05.910Z,8.35
2023-07-09T02:50:39.805Z,6.28
2023-07-09T02:53:08.312Z,8.10
2023-07-09T02:55:36.604Z,9.30
2023-07-09T02:58:05.071Z,9.68
2023-07-09T03:00:34.922Z,8.27
2023-07-09T03:03:04.038Z,9.00
2023-07-09T03:05:32.823Z,4.70
2023-07-09T03:08:01.177Z,7.30
2023-07-09T03:10:30.395Z,9.60
2023-07-09T03:12:58.967Z,13.25
2023-07-09T03:15:26.930Z,10.88
2023-07-09T03:17:55.230Z,10.05
2023-07-09T03:20:23.350Z,7.93
2023-07-09T03:22:51.713Z,9.20
2023-07-09T03:25:20.137Z,9.55
2023-07-09T03:27:50.032Z,9.45
2023-07-09T03:30:18.131Z,8.93
2023-07-09T03:32:47.148Z,11.07
2023-07-09T03:35:16.958Z,9.50
2023-07-09T03:37:45.303Z,7.93
2023-07-09T03:40:25.163Z,13.57
2023-07-09T03:42:53.926Z,9.75
2023-07-09T03:45:21.920Z,6.70
2023-07-09T03:47:50.312Z,11.48
2023-07-09T03:50:18.862Z,10.57
2023-07-09T03:52:47.126Z,10.25
2023-07-09T03:55:15.636Z,10.88
2023-07-09T03:57:44.167Z,8.52
2023-07-09T04:00:12.928Z,8.55
2023-07-09T04:02:47.195Z,8.85
2023-07-09T04:05:15.987Z,8.65
2023-07-09T04:07:44.280Z,8.32
2023-07-09T04:10:12.924Z,10.35
2023-07-09T04:12:41.869Z,6.55
2023-07-09T04:15:14.250Z,13.20
2023-07-09T04:17:44.878Z,7.97
2023-07-09T04:20:14.117Z,9.02
2023-07-09T04:22:42.533Z,12.52
2023-07-09T04:25:11.913Z,9.02
2023-07-09T04:27:40.822Z,7.07
2023-07-09T04:30:16.384Z,10.45
2023-07-09T04:32:45.827Z,10.52
2023-07-09T04:35:15.866Z,10.50
2023-07-09T04:37:44.512Z,9.90
2023-07-09T04:40:14.340Z,7.15
2023-07-09T04:42:42.976Z,14.55
2023-07-09T04:45:12.933Z,15.63
2023-07-09T04:47:41.940Z,11.75
2023-07-09T04:50:10.761Z,11.25
2023-07-09T04:52:39.032Z,6.13
2023-07-09T04:55:09.110Z,8.95
2023-07-09T04:57:40.922Z,12.48
2023-07-09T05:00:11.861Z,16.35
2023-07-09T05:02:40.586Z,13.60
2023-07-09T05:05:09.074Z,13.05
2023-07-09T05:07:37.883Z,12.07
2023-07-09T05:10:08.094Z,10.00
2023-07-09T05:12:36.319Z,10.15
2023-07-09T05:15:04.646Z,9.80
2023-07-09T05:17:33.751Z,12.05
2023-07-09T05:20:01.641Z,16.75
2023-07-09T05:22:30.325Z,14.02
2023-07-09T05:24:58.132Z,15.30
2023-07-09T05:27:26.362Z,11.95
2023-07-09T05:29:57.436Z,8.70
2023-07-09T05:32:25.959Z,12.90
2023-07-09T05:34:53.931Z,7.97
2023-07-09T05:37:22.184Z,10.13
2023-07-09T05:39:50.302Z,6.78
2023-07-09T05:42:18.746Z,14.30
2023-07-09T05:44:47.434Z,10.60
2023-07-09T05:47:15.967Z,9.00
2023-07-09T05:49:44.058Z,9.02
2023-07-09T05:52:12.469Z,8.38
2023-07-09T05:54:40.339Z,9.85
2023-07-09T05:57:10.059Z,7.85
2023-07-09T05:59:38.121Z,12.00
2023-07-09T06:02:12.177Z,7.75
2023-07-09T06:04:40.736Z,8.13
2023-07-09T06:07:11.210Z,10.95
2023-07-09T06:09:39.265Z,14.40
2023-07-09T06:12:08.440Z,6.45
2023-07-09T06:14:37.193Z,10.55
2023-07-09T06:17:05.835Z,15.48
2023-07-09T06:19:33.980Z,14.20
2023-07-09T06:22:02.415Z,10.65
2023-07-09T06:24:30.421Z,8.65
2023-07-09T06:26:58.842Z,9.15
2023-07-09T06:29:27.803Z,11.40
2023-07-09T06:31:56.125Z,11.77
2023-07-09T06:34:24.581Z,9.13
2023-07-09T06:36:53.357Z,11.32
2023-07-09T06:39:21.182Z,10.60
2023-07-09T06:41:50.035Z,10.13
2023-07-09T06:44:38.108Z,11.82
2023-07-09T06:47:06.764Z,13.75
2023-07-09T06:49:34.818Z,16.05
2023-07-09T06:52:03.922Z,6.78
2023-07-09T06:54:34.585Z,9.57
2023-07-09T06:57:02.925Z,8.63
2023-07-09T06:59:31.232Z,11.30
2023-07-09T07:02:00.520Z,9.93
2023-07-09T07:04:29.011Z,8.48
2023-07-09T07:06:58.211Z,11.95
2023-07-09T07:09:26.203Z,11.10
2023-07-09T07:11:54.413Z,8.07
2023-07-09T07:14:22.404Z,9.88
2023-07-09T07:16:51.568Z,15.93
2023-07-09T07:19:19.485Z,7.28
2023-07-09T07:21:47.928Z,11.38
2023-07-09T07:24:15.948Z,7.50
2023-07-09T07:26:44.190Z,16.45
2023-07-09T07:29:13.568Z,8.85
2023-07-09T07:31:41.883Z,8.48
2023-07-09T07:34:09.853Z,9.40
2023-07-09T07:36:42.262Z,11.20
2023-07-09T07:39:11.451Z,11.02
2023-07-09T07:41:39.724Z,8.75
2023-07-09T07:44:07.705Z,10.18
2023-07-09T07:46:37.986Z,9.93
2023-07-09T07:49:06.136Z,10.02
2023-07-09T07:51:35.339Z,8.75
2023-07-09T07:54:03.758Z,10.00
2023-07-09T07:56:32.221Z,9.65
2023-07-09T07:59:02.702Z,8.85
2023-07-09T08:01:40.293Z,11.10
2023-07-09T08:04:16.051Z,12.65
2023-07-09T08:06:44.617Z,9.15
2023-07-09T08:09:12.781Z,8.02
2023-07-09T08:11:41.091Z,6.32
2023-07-09T08:14:09.166Z,12.73
2023-07-09T08:16:37.636Z,7.75
2023-07-09T08:19:05.814Z,10.65
2023-07-09T08:21:34.396Z,14.88
2023-07-09T08:24:04.702Z,13.70
2023-07-09T08:26:34.097Z,9.77
2023-07-09T08:29:02.504Z,8.73
2023-07-09T08:31:30.830Z,9.13
2023-07-09T08:33:58.881Z,8.32
2023-07-09T08:36:29.655Z,8.05
2023-07-09T08:38:58.790Z,10.70
2023-07-09T08:41:46.416Z,5.00
2023-07-09T08:44:24.490Z,8.77
2023-07-09T08:47:01.670Z,12.20
2023-07-09T08:49:56.429Z,8.02
2023-07-09T08:52:36.945Z,12.68
2023-07-09T08:55:13.322Z,8.15
2023-07-09T08:57:49.921Z,8.98
2023-07-09T09:00:57.826Z,12.85
2023-07-09T09:04:14.086Z,9.02
2023-07-09T09:06:49.203Z,13.32
2023-07-09T09:09:33.980Z,8.10
2023-07-09T09:12:14.316Z,9.82
2023-07-09T09:14:53.915Z,11.65
2023-07-09T09:17:22.495Z,9.90
2023-07-09T09:20:00.877Z,7.05
2023-07-09T09:22:38.024Z,9.48
2023-07-09T09:25:28.656Z,8.68
2023-07-09T09:27:56.978Z,7.65
2023-07-09T09:30:27.157Z,8.55
2023-07-09T09:33:04.433Z,10.63
2023-07-09T09:35:38.944Z,11.43
2023-07-09T09:38:21.242Z,10.35
2023-07-09T09:40:50.334Z,8.05
2023-07-09T09:43:22.502Z,7.55
2023-07-09T09:45:51.613Z,8.02
2023-07-09T09:48:38.845Z,12.60
2023-07-09T09:51:07.826Z,7.95
2023-07-09T09:53:41.392Z,8.23
2023-07-09T09:56:19.630Z,7.40
2023-07-09T09:58:55.021Z,7.53
2023-07-09T10:01:32.394Z,9.10
2023-07-09T10:04:02.456Z,7.75
2023-07-09T10:06:34.027Z,9.00
2023-07-09T10:09:17.378Z,10.27
2023-07-09T10:11:50.335Z,10.85
2023-07-09T10:14:29.948Z,6.32
2023-07-09T10:17:25.585Z,6.13
2023-07-09T10:20:15.038Z,14.38
2023-07-09T10:26:17.100Z,8.80
2023-07-09T10:29:00.852Z,9.50
2023-07-09T10:31:47.592Z,5.88
2023-07-09T10:35:02.604Z,6.55
2023-07-09T10:37:55.811Z,8.20
2023-07-09T10:40:34.959Z,9.38
2023-07-09T10:43:06.504Z,7.25
2023-07-09T10:45:42.420Z,9.63
2023-07-09T10:50:45.748Z,8.25
2023-07-09T10:53:39.066Z,9.10
2023-07-09T10:56:10.819Z,13.20
2023-07-09T10:58:50.679Z,8.93
2023-07-09T11:01:27.226Z,11.55
2023-07-09T11:04:01.979Z,10.77
2023-07-09T11:06:39.808Z,7.82
2023-07-09T11:09:19.236Z,6.22
2023-07-09T11:11:52.475Z,7.10
2023-07-09T11:14:42.261Z,8.52
2023-07-09T11:17:19.139Z,14.52
2023-07-09T11:19:50.079Z,9.43
2023-07-09T11:22:24.014Z,8.43
2023-07-09T11:25:10.995Z,5.78
2023-07-09T11:27:52.760Z,5.82
2023-07-09T11:30:27.739Z,14.98
2023-07-09T11:33:10.341Z,6.38
2023-07-09T11:35:52.846Z,12.80
2023-07-09T11:38:25.139Z,8.15
2023-07-09T11:40:55.768Z,6.43
2023-07-09T11:43:47.771Z,8.18
2023-07-09T11:46:25.740Z,9.80
2023-07-09T11:48:59.435Z,7.25
2023-07-09T11:51:46.863Z,9.15
2023-07-09T11:54:20.312Z,8.23
2023-07-09T11:56:59.294Z,10.18
2023-07-09T11:59:28.464Z,9.95
2023-07-09T12:02:22.555Z,10.32
2023-07-09T12:04:52.501Z,7.88
2023-07-09T12:07:24.627Z,11.85
2023-07-09T12:09:52.988Z,9.00
2023-07-09T12:12:29.987Z,8.73
2023-07-09T12:14:58.339Z,9.52
2023-07-09T12:17:31.835Z,11.20
2023-07-09T12:20:05.620Z,10.93
2023-07-09T12:22:34.228Z,11.90
2023-07-09T12:25:02.830Z,9.52
2023-07-09T12:27:38.890Z,12.15
2023-07-09T12:30:14.638Z,11.00
2023-07-09T12:32:47.798Z,7.88
2023-07-09T12:35:17.891Z,10.48
2023-07-09T12:37:48.313Z,14.07
2023-07-09T12:40:22.285Z,12.77
2023-07-09T12:42:50.994Z,15.25
2023-07-09T12:45:21.788Z,16.50
2023-07-09T12:47:50.977Z,13.82
2023-07-09T12:50:34.128Z,9.18
2023-07-09T12:53:16.679Z,11.15
2023-07-09T12:55:47.834Z,12.65
2023-07-09T12:58:22.388Z,12.02
2023-07-09T13:00:53.149Z,7.95
2023-07-09T13:03:28.457Z,9.93
2023-07-09T13:06:05.437Z,8.82
2023-07-09T13:08:44.336Z,9.23
2023-07-09T13:11:22.526Z,8.60
2023-07-09T13:14:04.455Z,12.00
2023-07-09T13:16:39.773Z,9.40
2023-07-09T13:21:38.919Z,8.68
2023-07-09T13:24:29.292Z,9.90
2023-07-09T13:27:00.810Z,10.38
2023-07-09T13:29:29.391Z,9.38
2023-07-09T13:31:58.701Z,12.32
2023-07-09T13:34:29.234Z,9.32
2023-07-09T13:37:00.155Z,9.07
2023-07-09T13:39:29.237Z,7.75
2023-07-09T13:41:58.044Z,9.65
2023-07-09T13:44:29.316Z,9.13
2023-07-09T13:46:57.730Z,8.70
2023-07-09T13:49:28.786Z,9.65
2023-07-09T13:52:00.781Z,16.38
2023-07-09T13:54:41.733Z,13.23
2023-07-09T13:57:15.569Z,9.63
2023-07-09T13:59:46.848Z,7.45
2023-07-09T14:02:21.160Z,11.10
2023-07-09T14:04:49.553Z,6.17
2023-07-09T14:07:46.153Z,10.00
2023-07-09T14:10:19.436Z,11.23
2023-07-09T14:12:48.794Z,8.32
2023-07-09T14:15:22.091Z,9.80
2023-07-09T14:17:50.327Z,8.82
2023-07-09T14:20:19.382Z,10.07
2023-07-09T14:22:49.180Z,6.82
2023-07-09T14:25:22.367Z,7.93
2023-07-09T14:27:55.231Z,8.13
2023-07-09T14:30:28.365Z,9.63
2023-07-09T14:32:59.322Z,9.88
2023-07-09T14:35:28.201Z,8.48
2023-07-09T14:37:56.818Z,7.55
2023-07-09T14:40:51.237Z,11.32
2023-07-09T14:43:19.737Z,10.40
2023-07-09T14:45:51.062Z,7.47
2023-07-09T14:48:22.469Z,9.75
2023-07-09T14:50:52.453Z,13.10
2023-07-09T14:53:28.811Z,13.68
2023-07-09T14:55:58.596Z,10.27
2023-07-09T14:58:27.902Z,15.65
2023-07-09T15:00:56.315Z,13.32
2023-07-09T15:03:27.320Z,14.90
2023-07-09T15:05:55.918Z,15.00
2023-07-09T15:08:26.888Z,15.45
2023-07-09T15:10:56.986Z,13.50
2023-07-09T15:13:35.962Z,14.73
2023-07-09T15:16:06.064Z,12.02
2023-07-09T15:18:38.060Z,13.00
2023-07-09T15:21:07.025Z,15.10
2023-07-09T15:23:41.087Z,14.35
2023-07-09T15:26:15.836Z,10.65
2023-07-09T15:28:44.697Z,17.60
2023-07-09T15:31:13.486Z,11.57
2023-07-09T15:33:41.631Z,9.80
2023-07-09T15:36:13.374Z,12.80
2023-07-09T15:38:43.368Z,11.77
2023-07-09T15:41:16.219Z,13.70
2023-07-09T15:43:45.596Z,12.05
2023-07-09T15:46:22.744Z,28.65
2023-07-09T15:48:53.416Z,29.77
2023-07-09T15:51:23.041Z,37.30
2023-07-09T15:53:51.341Z,37.28
2023-07-09T15:56:31.222Z,19.02
2023-07-09T15:59:01.195Z,15.68
2023-07-09T16:01:29.882Z,13.75
2023-07-09T16:04:04.058Z,14.75
2023-07-09T16:06:36.660Z,15.75
2023-07-09T16:09:07.128Z,13.93
2023-07-09T16:11:38.121Z,13.48
2023-07-09T16:14:18.233Z,16.17
2023-07-09T16:16:52.255Z,15.60
2023-07-09T16:19:22.931Z,14.57
2023-07-09T16:22:12.322Z,14.40
2023-07-09T16:24:40.424Z,14.40
2023-07-09T16:27:15.524Z,13.07
2023-07-09T16:29:43.688Z,15.07
2023-07-09T16:32:12.182Z,13.73
2023-07-09T16:34:42.543Z,13.75
2023-07-09T16:37:21.589Z,12.82
2023-07-09T16:39:49.988Z,11.95
2023-07-09T16:42:18.343Z,10.52
2023-07-09T16:45:11.720Z,12.52
2023-07-09T16:51:53.620Z,12.63
2023-07-09T16:54:22.033Z,11.52
2023-07-09T16:56:54.689Z,8.88
2023-07-09T16:59:23.823Z,9.60
2023-07-09T17:01:52.363Z,9.40
2023-07-09T17:04:28.487Z,9.98
2023-07-09T17:06:57.583Z,9.27
2023-07-09T17:09:25.725Z,9.45
2023-07-09T17:11:59.159Z,8.30
2023-07-09T17:14:27.503Z,6.50
2023-07-09T17:16:56.461Z,8.82
2023-07-09T17:19:24.982Z,6.63
2023-07-09T17:21:56.042Z,8.43
2023-07-09T17:24:26.638Z,6.63
2023-07-09T17:26:59.210Z,6.85
2023-07-09T17:29:27.277Z,7.55
2023-07-09T17:31:55.706Z,6.70
2023-07-09T17:34:24.113Z,5.80
2023-07-09T17:36:55.205Z,7.05
2023-07-09T17:39:25.373Z,6.45
2023-07-09T17:41:54.024Z,8.27
2023-07-09T17:44:24.795Z,6.47
2023-07-09T17:46:55.338Z,7.40
2023-07-09T17:49:29.360Z,7.25
2023-07-09T17:51:59.558Z,5.75
2023-07-09T17:54:30.082Z,7.63
2023-07-09T17:56:58.769Z,6.57
2023-07-09T17:59:32.163Z,6.32
2023-07-09T18:02:15.035Z,5.65
2023-07-09T18:04:43.450Z,7.38
2023-07-09T18:07:29.557Z,11.13
2023-07-09T18:09:59.106Z,11.18
2023-07-09T18:12:29.513Z,9.00
2023-07-09T18:14:59.245Z,8.07
2023-07-09T18:17:36.474Z,8.77
2023-07-09T18:20:14.919Z,9.18
2023-07-09T18:22:43.287Z,6.82
2023-07-09T18:25:12.247Z,10.15
2023-07-09T18:27:44.749Z,9.00
2023-07-09T18:30:22.994Z,6.07
2023-07-09T18:32:56.317Z,5.50
2023-07-09T18:35:27.637Z,8.07
2023-07-09T18:38:02.263Z,5.93
2023-07-09T18:40:34.137Z,8.93
2023-07-09T18:43:03.707Z,7.47
2023-07-09T18:45:31.637Z,8.48
2023-07-09T18:48:00.522Z,8.35
2023-07-09T18:50:31.083Z,5.68
2023-07-09T18:53:00.823Z,7.78
2023-07-09T18:55:30.645Z,7.72
2023-07-09T18:58:14.673Z,7.10
2023-07-09T19:00:42.827Z,8.68
2023-07-09T19:03:19.557Z,6.00
2023-07-09T19:05:48.380Z,9.57
2023-07-09T19:08:28.292Z,6.57
2023-07-09T19:10:57.226Z,5.53
2023-07-09T19:13:29.359Z,7.45
2023-07-09T19:16:00.204Z,7.70
2023-07-09T19:18:34.722Z,6.05
2023-07-09T19:21:04.522Z,5.32
2023-07-09T19:23:33.873Z,7.43
2023-07-09T19:26:02.438Z,7.93
2023-07-09T19:28:31.131Z,6.97
2023-07-09T19:30:59.432Z,6.43
2023-07-09T19:33:37.111Z,6.80
2023-07-09T19:36:23.301Z,8.18
2023-07-09T19:38:53.612Z,9.77
2023-07-09T19:41:23.536Z,9.85
2023-07-09T19:43:52.255Z,5.55
2023-07-09T19:46:29.934Z,7.25
2023-07-09T19:48:58.433Z,8.68
2023-07-09T19:51:26.416Z,6.60
2023-07-09T19:53:55.006Z,7.25
2023-07-09T19:56:22.856Z,8.65
2023-07-09T19:58:53.088Z,7.57
2023-07-09T20:01:22.056Z,7.32
2023-07-09T20:03:50.450Z,5.97
2023-07-09T20:06:18.511Z,8.98
2023-07-09T20:08:47.365Z,8.70
2023-07-09T20:11:15.315Z,7.40
2023-07-09T20:13:44.269Z,9.00
2023-07-09T20:16:30.321Z,8.50
2023-07-09T20:19:00.190Z,7.78
2023-07-09T20:21:28.827Z,7.05
2023-07-09T20:23:57.602Z,8.23
2023-07-09T20:26:25.777Z,6.35
2023-07-09T20:28:54.171Z,8.07
2023-07-09T20:31:25.761Z,6.72
2023-07-09T20:34:11.808Z,9.35
2023-07-09T20:36:40.171Z,4.95
2023-07-09T20:39:20.750Z,8.38
2023-07-09T20:41:52.477Z,7.50
2023-07-09T20:44:24.438Z,4.65
2023-07-09T20:46:53.093Z,5.45
2023-07-09T20:49:28.683Z,6.38
2023-07-09T20:51:57.011Z,6.22
2023-07-09T20:54:25.475Z,5.38
2023-07-09T20:56:57.849Z,4.93
2023-07-09T20:59:28.761Z,5.07
2023-07-09T21:01:56.911Z,4.38
2023-07-09T21:04:25.580Z,5.18
2023-07-09T21:06:54.302Z,4.38
2023-07-09T21:09:31.656Z,3.63
2023-07-09T21:11:59.968Z,6.47
2023-07-09T21:14:28.641Z,4.05
2023-07-09T21:17:01.307Z,5.25
2023-07-09T21:19:34.082Z,3.75
2023-07-09T21:22:04.401Z,6.28
2023-07-09T21:24:39.283Z,5.68
2023-07-09T21:27:08.684Z,4.95
2023-07-09T21:29:37.377Z,3.65
2023-07-09T21:32:21.182Z,7.32
2023-07-09T21:34:53.539Z,4.78
2023-07-09T21:37:23.370Z,6.20
2023-07-09T21:39:52.219Z,8.05
2023-07-09T21:42:20.344Z,5.35
2023-07-09T21:44:48.623Z,4.20
2023-07-09T21:47:19.377Z,7.75
2023-07-09T21:49:48.000Z,5.80
2023-07-09T21:52:22.507Z,5.15
2023-07-09T21:57:24.108Z,5.30
2023-07-09T21:59:52.577Z,4.80
2023-07-09T22:02:25.084Z,3.22
2023-07-09T22:04:55.641Z,5.85
2023-07-09T22:07:25.883Z,7.72
2023-07-09T22:09:56.047Z,5.10
2023-07-09T22:12:24.371Z,4.97
2023-07-09T22:14:58.819Z,4.03
2023-07-09T22:17:27.543Z,4.38
2023-07-09T22:19:58.543Z,2.85
2023-07-09T22:22:31.382Z,4.20
2023-07-09T22:25:00.671Z,4.38
2023-07-09T22:27:29.454Z,1.98
2023-07-09T22:29:58.106Z,2.28
2023-07-09T22:32:32.251Z,2.53
2023-07-09T22:35:03.959Z,2.10
2023-07-09T22:37:33.797Z,4.03
2023-07-09T22:40:32.033Z,4.15
2023-07-09T22:43:00.764Z,3.13
2023-07-09T22:45:30.957Z,3.40
2023-07-09T22:48:00.950Z,3.90
2023-07-09T22:50:32.614Z,3.80
2023-07-09T22:53:01.098Z,1.92
2023-07-09T22:55:36.579Z,2.63
2023-07-09T22:58:09.084Z,2.55
2023-07-09T23:00:39.805Z,2.60
2023-07-09T23:03:18.212Z,3.40
2023-07-09T23:05:47.963Z,2.03
2023-07-09T23:08:24.898Z,2.28
2023-07-09T23:10:58.427Z,2.85
2023-07-09T23:13:30.476Z,2.47
2023-07-09T23:16:02.799Z,3.20
2023-07-09T23:18:32.124Z,2.15
2023-07-09T23:21:04.337Z,5.70
2023-07-09T23:23:32.565Z,3.60
2023-07-09T23:26:01.009Z,2.42
2023-07-09T23:28:29.236Z,1.20
2023-07-09T23:31:01.930Z,2.65
2023-07-09T23:33:32.982Z,1.52
2023-07-09T23:36:03.366Z,1.83
2023-07-09T23:38:33.537Z,2.90
2023-07-09T23:41:02.626Z,1.55
2023-07-09T23:43:41.868Z,1.40
2023-07-09T23:46:13.189Z,1.40
2023-07-09T23:48:46.731Z,2.38
2023-07-09T23:51:17.614Z,2.67
2023-07-09T23:53:45.560Z,3.05
2023-07-09T23:56:19.903Z,2.33
2023-07-09T23:58:48.093Z,3.63
